createdAt,value
2023-01-19T00:01:08.580Z,99404.41
2023-01-19T00:03:36.949Z,99403.34
2023-01-19T00:06:07.031Z,99404.19
2023-01-19T00:08:35.560Z,99398.06
2023-01-19T00:11:04.100Z,99401.41
2023-01-19T00:13:34.108Z,99400.56
2023-01-19T00:16:02.155Z,99405.81
2023-01-19T00:18:30.275Z,99403.94
2023-01-19T00:20:58.796Z,99404.53
2023-01-19T00:23:27.011Z,99390.44
2023-01-19T00:25:55.054Z,99402.47
2023-01-19T00:28:23.113Z,99405.94
2023-01-19T00:30:52.920Z,99416.72
2023-01-19T00:33:21.020Z,99405.94
2023-01-19T00:35:53.361Z,99402.59
2023-01-19T00:38:22.332Z,99400.69
2023-01-19T00:40:50.522Z,99390.53
2023-01-19T00:43:17.616Z,99395.66
2023-01-19T00:45:46.793Z,99392.75
2023-01-19T00:48:16.173Z,99394.44
2023-01-19T00:50:44.204Z,99406.38
2023-01-19T00:53:12.331Z,99396.56
2023-01-19T00:55:40.416Z,99410.56
2023-01-19T00:58:08.451Z,99411.41
2023-01-19T01:00:36.700Z,99413.78
2023-01-19T01:03:05.259Z,99418.34
2023-01-19T01:05:34.837Z,99416.41
2023-01-19T01:08:02.876Z,99419.88
2023-01-19T01:10:31.129Z,99424.78
2023-01-19T01:12:59.291Z,99421.41
2023-01-19T01:15:29.847Z,99423.78
2023-01-19T01:17:57.994Z,99422.72
2023-01-19T01:20:30.199Z,99425.47
2023-01-19T01:22:59.863Z,99417.84
2023-01-19T01:25:30.961Z,99427.50
2023-01-19T01:27:59.225Z,99415.91
2023-01-19T01:30:27.301Z,99421.16
2023-01-19T01:32:55.892Z,99433.63
2023-01-19T01:35:24.350Z,99425.13
2023-01-19T01:37:52.416Z,99441.03
2023-01-19T01:40:22.079Z,99441.03
2023-01-19T01:42:50.157Z,99435.75
2023-01-19T01:45:33.192Z,99430.63
2023-01-19T01:48:09.727Z,99435.06
2023-01-19T01:51:04.186Z,99426.59
2023-01-19T01:53:35.505Z,99431.00
2023-01-19T01:56:12.775Z,99434.72
2023-01-19T01:58:42.391Z,99433.88
2023-01-19T02:01:29.313Z,99429.47
2023-01-19T02:04:02.240Z,99434.81
2023-01-19T02:06:30.593Z,99424.31
2023-01-19T02:09:23.184Z,99431.38
2023-01-19T02:12:09.965Z,99425.28
2023-01-19T02:14:38.315Z,99429.81
2023-01-19T02:17:07.727Z,99421.94
2023-01-19T02:19:42.908Z,99409.88
2023-01-19T02:22:18.898Z,99416.81
2023-01-19T02:24:49.782Z,99413.44
2023-01-19T02:27:18.661Z,99419.78
2023-01-19T02:29:46.834Z,99423.38
2023-01-19T02:32:14.999Z,99421.72
2023-01-19T02:34:43.135Z,99411.31
2023-01-19T02:37:15.778Z,99414.78
2023-01-19T02:39:50.682Z,99423.63
2023-01-19T02:42:25.182Z,99421.97
2023-01-19T02:44:57.236Z,99421.97
2023-01-19T02:47:25.894Z,99418.59
2023-01-19T02:49:58.179Z,99407.41
2023-01-19T02:52:28.147Z,99416.22
2023-01-19T02:55:11.182Z,99413.59
2023-01-19T02:58:02.206Z,99416.34
2023-01-19T03:00:41.492Z,99418.25
2023-01-19T03:03:30.575Z,99420.19
2023-01-19T03:06:09.707Z,99416.72
2023-01-19T03:08:51.382Z,99416.72
2023-01-19T03:11:21.513Z,99422.91
2023-01-19T03:13:54.525Z,99418.84
2023-01-19T03:16:28.959Z,99419.84
2023-01-19T03:19:05.430Z,99428.41
2023-01-19T03:21:37.831Z,99426.75
2023-01-19T03:24:11.922Z,99425.53
2023-01-19T03:26:48.064Z,99433.19
2023-01-19T03:29:19.348Z,99439.88
2023-01-19T03:31:51.416Z,99440.47
2023-01-19T03:34:23.925Z,99438.91
2023-01-19T03:36:58.779Z,99435.06
2023-01-19T03:39:29.862Z,99433.88
2023-01-19T03:42:05.950Z,99430.06
2023-01-19T03:44:40.263Z,99425.25
2023-01-19T03:47:12.641Z,99425.63
2023-01-19T03:49:44.146Z,99421.91
2023-01-19T03:52:13.407Z,99415.69
2023-01-19T03:54:42.126Z,99417.59
2023-01-19T03:57:11.563Z,99417.59
2023-01-19T03:59:39.648Z,99424.28
2023-01-19T04:02:07.869Z,99424.28
2023-01-19T04:04:35.923Z,99425.22
2023-01-19T04:07:03.952Z,99422.72
2023-01-19T04:09:31.979Z,99417.34
2023-01-19T04:12:01.487Z,99419.84
2023-01-19T04:14:30.955Z,99407.41
2023-01-19T04:16:59.000Z,99410.19
2023-01-19T04:19:27.091Z,99400.59
2023-01-19T04:21:55.649Z,99397.84
2023-01-19T04:24:23.732Z,99405.97
2023-01-19T04:26:53.798Z,99403.50
2023-01-19T04:29:21.886Z,99407.91
2023-01-19T04:31:51.229Z,99408.50
2023-01-19T04:34:19.271Z,99407.66
2023-01-19T04:36:50.914Z,99410.44
2023-01-19T04:39:18.971Z,99404.41
2023-01-19T04:41:46.988Z,99400.06
2023-01-19T04:44:15.430Z,99398.34
2023-01-19T04:46:43.524Z,99399.31
2023-01-19T04:49:13.156Z,99399.47
2023-01-19T04:51:41.188Z,99396.84
2023-01-19T04:54:09.855Z,99386.31
2023-01-19T04:56:38.400Z,99388.97
2023-01-19T04:59:06.429Z,99392.66
2023-01-19T05:01:34.647Z,99400.19
2023-01-19T05:04:05.091Z,99405.69
2023-01-19T05:06:35.229Z,99401.13
2023-01-19T05:09:03.352Z,99391.59
2023-01-19T05:11:31.400Z,99402.81
2023-01-19T05:13:59.403Z,99402.81
2023-01-19T05:16:27.491Z,99408.22
2023-01-19T05:18:55.565Z,99408.22
2023-01-19T05:21:23.617Z,99410.19
2023-01-19T05:23:53.081Z,99409.94
2023-01-19T05:26:21.133Z,99407.28
2023-01-19T05:28:50.262Z,99405.66
2023-01-19T05:31:19.608Z,99403.84
2023-01-19T05:33:48.255Z,99407.06
2023-01-19T05:36:16.331Z,99400.13
2023-01-19T05:38:44.384Z,99406.81
2023-01-19T05:41:14.178Z,99406.66
2023-01-19T05:43:42.242Z,99407.13
2023-01-19T05:46:10.396Z,99405.34
2023-01-19T05:48:39.107Z,99414.03
2023-01-19T05:51:07.686Z,99408.66
2023-01-19T05:53:35.736Z,99406.28
2023-01-19T05:56:06.085Z,99412.41
2023-01-19T05:58:36.171Z,99416.56
2023-01-19T06:01:05.887Z,99416.31
2023-01-19T06:03:35.475Z,99418.34
2023-01-19T06:06:04.954Z,99417.41
2023-01-19T06:08:32.976Z,99421.31
2023-01-19T06:11:01.084Z,99419.66
2023-01-19T06:13:29.098Z,99425.72
2023-01-19T06:16:03.386Z,99426.19
2023-01-19T06:18:31.565Z,99421.78
2023-01-19T06:20:59.620Z,99429.66
2023-01-19T06:23:30.201Z,99429.78
2023-01-19T06:25:58.667Z,99422.19
2023-01-19T06:28:26.883Z,99433.72
2023-01-19T06:30:56.725Z,99435.78
2023-01-19T06:33:27.822Z,99433.84
2023-01-19T06:35:56.567Z,99437.16
2023-01-19T06:38:24.758Z,99442.44
2023-01-19T06:40:58.663Z,99438.00
2023-01-19T06:43:27.897Z,99445.78
2023-01-19T06:45:56.913Z,99445.91
2023-01-19T06:48:26.298Z,99444.69
2023-01-19T06:50:54.294Z,99445.66
2023-01-19T06:53:22.447Z,99453.31
2023-01-19T06:55:50.548Z,99444.69
2023-01-19T06:58:18.802Z,99464.81
2023-01-19T07:00:46.904Z,99456.06
2023-01-19T07:03:21.347Z,99463.59
2023-01-19T07:05:53.270Z,99465.50
2023-01-19T07:08:21.769Z,99469.13
2023-01-19T07:11:26.742Z,99465.38
2023-01-19T07:13:41.066Z,99467.88
2023-01-19T07:16:12.571Z,99468.00
2023-01-19T07:18:41.868Z,99472.44
2023-01-19T07:21:11.726Z,99474.94
2023-01-19T07:23:39.740Z,99465.97
2023-01-19T07:26:11.715Z,99464.97
2023-01-19T07:28:39.768Z,99468.59
2023-01-19T07:31:08.867Z,99477.44
2023-01-19T07:33:37.069Z,99481.03
2023-01-19T07:36:05.654Z,99482.97
2023-01-19T07:38:35.095Z,99488.94
2023-01-19T07:41:03.817Z,99486.56
2023-01-19T07:43:32.398Z,99492.69
2023-01-19T07:46:03.317Z,99490.03
2023-01-19T07:48:31.582Z,99485.88
2023-01-19T07:51:01.963Z,99483.94
2023-01-19T07:53:31.257Z,99492.94
2023-01-19T07:56:00.929Z,99493.78
2023-01-19T07:58:30.512Z,99486.56
2023-01-19T08:00:58.638Z,99494.34
2023-01-19T08:03:26.826Z,99491.56
2023-01-19T08:05:56.945Z,99495.19
2023-01-19T08:08:25.352Z,99508.09
2023-01-19T08:10:54.154Z,99512.38
2023-01-19T08:13:23.615Z,99502.56
2023-01-19T08:15:52.943Z,99504.38
2023-01-19T08:18:21.899Z,99501.75
2023-01-19T08:20:50.097Z,99494.94
2023-01-19T08:23:19.608Z,99501.84
2023-01-19T08:25:47.862Z,99498.25
2023-01-19T08:28:18.011Z,99503.53
2023-01-19T08:30:53.990Z,99499.94
2023-01-19T08:33:23.652Z,99501.03
2023-01-19T08:35:54.319Z,99501.84
2023-01-19T08:38:22.750Z,99507.25
2023-01-19T08:40:50.883Z,99511.00
2023-01-19T08:43:19.160Z,99511.00
2023-01-19T08:45:53.748Z,99519.59
2023-01-19T08:48:23.548Z,99518.63
2023-01-19T08:50:53.375Z,99511.69
2023-01-19T08:53:24.089Z,99513.81
2023-01-19T08:55:57.296Z,99518.13
2023-01-19T08:58:25.346Z,99515.75
2023-01-19T09:00:55.048Z,99512.00
2023-01-19T09:03:23.587Z,99527.72
2023-01-19T09:05:52.260Z,99516.06
2023-01-19T09:08:20.678Z,99525.25
2023-01-19T09:10:51.359Z,99525.44
2023-01-19T09:13:22.143Z,99530.34
2023-01-19T09:15:50.464Z,99529.25
2023-01-19T09:18:22.988Z,99535.94
2023-01-19T09:20:52.045Z,99541.19
2023-01-19T09:23:22.576Z,99544.53
2023-01-19T09:25:57.674Z,99540.94
2023-01-19T09:28:25.747Z,99548.97
2023-01-19T09:30:54.386Z,99548.97
2023-01-19T09:33:25.549Z,99550.53
2023-01-19T09:35:53.884Z,99554.13
2023-01-19T09:38:22.385Z,99559.50
2023-01-19T09:40:54.312Z,99560.09
2023-01-19T09:43:40.742Z,99562.03
2023-01-19T09:46:16.827Z,99567.16
2023-01-19T09:48:50.904Z,99565.34
2023-01-19T09:51:23.210Z,99564.41
2023-01-19T09:54:09.076Z,99565.34
2023-01-19T09:56:37.747Z,99564.50
2023-01-19T09:59:22.246Z,99579.25
2023-01-19T10:02:19.240Z,99577.31
2023-01-19T10:05:00.848Z,99577.22
2023-01-19T10:07:58.299Z,99578.00
2023-01-19T10:10:29.078Z,99575.38
2023-01-19T10:13:12.530Z,99582.31
2023-01-19T10:15:56.773Z,99583.28
2023-01-19T10:18:33.062Z,99579.84
2023-01-19T10:21:11.472Z,99587.59
2023-01-19T10:23:47.175Z,99586.91
2023-01-19T10:26:19.182Z,99578.69
2023-01-19T10:28:52.229Z,99588.38
2023-01-19T10:31:24.881Z,99592.22
2023-01-19T10:33:54.809Z,99585.53
2023-01-19T10:36:34.811Z,99590.13
2023-01-19T10:39:08.892Z,99591.75
2023-01-19T10:41:44.284Z,99586.91
2023-01-19T10:44:12.608Z,99587.72
2023-01-19T10:46:47.153Z,99592.53
2023-01-19T10:49:28.298Z,99586.56
2023-01-19T10:52:00.151Z,99594.59
2023-01-19T10:54:31.127Z,99596.28
2023-01-19T10:57:03.279Z,99595.53
2023-01-19T10:59:38.669Z,99599.00
2023-01-19T11:02:20.580Z,99589.91
2023-01-19T11:04:51.359Z,99592.44
2023-01-19T11:07:24.624Z,99589.66
2023-01-19T11:10:21.942Z,99586.63
2023-01-19T11:13:02.166Z,99599.66
2023-01-19T11:15:41.818Z,99594.97
2023-01-19T11:18:23.244Z,99596.66
2023-01-19T11:20:55.419Z,99598.34
2023-01-19T11:23:29.284Z,99598.34
2023-01-19T11:26:02.689Z,99601.66
2023-01-19T11:28:36.390Z,99604.88
2023-01-19T11:31:18.780Z,99603.09
2023-01-19T11:33:53.069Z,99603.69
2023-01-19T11:36:24.186Z,99600.66
2023-01-19T11:38:54.379Z,99600.53
2023-01-19T11:41:29.467Z,99601.25
2023-01-19T11:44:03.718Z,99602.09
2023-01-19T11:46:37.532Z,99598.47
2023-01-19T11:49:14.765Z,99602.66
2023-01-19T11:51:53.127Z,99598.19
2023-01-19T11:54:27.931Z,99609.31
2023-01-19T11:57:00.972Z,99608.50
2023-01-19T11:59:29.816Z,99603.38
2023-01-19T12:02:06.020Z,99602.84
2023-01-19T12:04:40.130Z,99606.44
2023-01-19T12:07:12.141Z,99610.75
2023-01-19T12:09:45.275Z,99616.03
2023-01-19T12:12:32.115Z,99614.09
2023-01-19T12:15:07.112Z,99613.13
2023-01-19T12:17:41.566Z,99622.97
2023-01-19T12:20:27.305Z,99622.25
2023-01-19T12:23:15.368Z,99636.53
2023-01-19T12:26:04.819Z,99635.94
2023-01-19T12:28:41.870Z,99630.94
2023-01-19T12:31:10.820Z,99634.78
2023-01-19T12:33:41.342Z,99634.34
2023-01-19T12:36:36.605Z,99640.31
2023-01-19T12:39:13.755Z,99644.09
2023-01-19T12:41:43.015Z,99647.34
2023-01-19T12:44:33.950Z,99642.34
2023-01-19T12:47:20.153Z,99649.22
2023-01-19T12:49:52.915Z,99653.66
2023-01-19T12:52:29.015Z,99655.81
2023-01-19T12:55:07.567Z,99656.38
2023-01-19T12:57:43.087Z,99657.25
2023-01-19T13:00:33.565Z,99667.94
2023-01-19T13:03:04.364Z,99668.03
2023-01-19T13:05:59.739Z,99670.22
2023-01-19T13:08:59.163Z,99676.19
2023-01-19T13:11:31.367Z,99677.28
2023-01-19T13:14:36.529Z,99677.88
2023-01-19T13:17:34.082Z,99675.75
2023-01-19T13:20:29.448Z,99676.19
2023-01-19T13:23:26.711Z,99673.97
2023-01-19T13:26:07.437Z,99679.22
2023-01-19T13:28:43.369Z,99676.44
2023-01-19T13:31:13.647Z,99682.56
2023-01-19T13:33:51.186Z,99682.91
2023-01-19T13:36:27.187Z,99685.03
2023-01-19T13:38:57.658Z,99692.69
2023-01-19T13:41:30.453Z,99690.81
2023-01-19T13:44:04.168Z,99693.19
2023-01-19T13:46:34.232Z,99697.63
2023-01-19T13:49:16.447Z,99705.16
2023-01-19T13:51:44.553Z,99709.09
2023-01-19T13:54:17.911Z,99709.69
2023-01-19T13:56:50.073Z,99716.63
2023-01-19T13:59:18.253Z,99719.16
2023-01-19T14:01:48.275Z,99719.75
2023-01-19T14:04:30.281Z,99724.75
2023-01-19T14:07:03.487Z,99735.06
2023-01-19T14:09:31.994Z,99737.44
2023-01-19T14:12:12.998Z,99743.41
2023-01-19T14:14:41.593Z,99746.19
2023-01-19T14:17:26.278Z,99747.72
2023-01-19T14:19:57.938Z,99745.69
2023-01-19T14:22:43.300Z,99751.06
2023-01-19T14:25:29.655Z,99748.81
2023-01-19T14:28:39.179Z,99755.88
2023-01-19T14:31:22.430Z,99756.59
2023-01-19T14:33:53.820Z,99754.19
2023-01-19T14:36:39.111Z,99754.94
2023-01-19T14:39:24.111Z,99754.78
2023-01-19T14:41:54.150Z,99762.59
2023-01-19T14:44:30.549Z,99761.75
2023-01-19T14:47:00.119Z,99768.69
2023-01-19T14:49:35.127Z,99768.56
2023-01-19T14:52:17.145Z,99763.28
2023-01-19T14:54:47.999Z,99769.16
2023-01-19T14:57:16.478Z,99777.66
2023-01-19T14:59:49.457Z,99779.59
2023-01-19T15:02:19.417Z,99773.31
2023-01-19T15:04:48.912Z,99778.59
2023-01-19T15:07:20.665Z,99780.44
2023-01-19T15:09:49.225Z,99785.69
2023-01-19T15:12:20.686Z,99792.63
2023-01-19T15:14:48.832Z,99789.88
2023-01-19T15:17:25.337Z,99796.09
2023-01-19T15:19:54.992Z,99808.56
2023-01-19T15:22:29.247Z,99800.66
2023-01-19T15:24:59.925Z,99817.31
2023-01-19T15:27:28.400Z,99816.50
2023-01-19T15:29:56.559Z,99818.28
2023-01-19T15:32:24.671Z,99821.88
2023-01-19T15:34:52.734Z,99824.66
2023-01-19T15:37:20.750Z,99829.19
2023-01-19T15:39:50.275Z,99831.81
2023-01-19T15:42:18.284Z,99834.44
2023-01-19T15:44:46.799Z,99836.38
2023-01-19T15:47:14.844Z,99848.56
2023-01-19T15:49:42.876Z,99847.78
2023-01-19T15:52:10.923Z,99854.00
2023-01-19T15:54:39.002Z,99852.19
2023-01-19T15:57:09.314Z,99852.31
2023-01-19T15:59:37.360Z,99855.09
2023-01-19T16:02:05.829Z,99869.22
2023-01-19T16:04:34.050Z,99866.81
2023-01-19T16:07:02.076Z,99866.31
2023-01-19T16:09:30.079Z,99864.78
2023-01-19T16:11:58.129Z,99871.84
2023-01-19T16:14:27.894Z,99868.34
2023-01-19T16:16:59.200Z,99871.13
2023-01-19T16:19:27.420Z,99874.72
2023-01-19T16:21:55.442Z,99876.66
2023-01-19T16:24:23.490Z,99881.91
2023-01-19T16:26:51.695Z,99881.06
2023-01-19T16:29:19.744Z,99883.56
2023-01-19T16:31:49.262Z,99888.84
2023-01-19T16:34:18.051Z,99898.53
2023-01-19T16:36:46.114Z,99896.75
2023-01-19T16:39:16.112Z,99895.31
2023-01-19T16:41:45.845Z,99892.91
2023-01-19T16:44:16.240Z,99903.44
2023-01-19T16:46:49.646Z,99903.44
2023-01-19T16:49:21.055Z,99902.84
2023-01-19T16:51:50.488Z,99908.09
2023-01-19T16:54:21.934Z,99916.16
2023-01-19T16:56:50.639Z,99913.50
2023-01-19T16:59:20.930Z,99925.00
2023-01-19T17:01:52.489Z,99922.50
2023-01-19T17:04:23.104Z,99920.81
2023-01-19T17:06:51.256Z,99925.94
2023-01-19T17:09:19.429Z,99921.75
2023-01-19T17:11:47.858Z,99921.91
2023-01-19T17:14:20.261Z,99925.47
2023-01-19T17:16:50.485Z,99929.06
2023-01-19T17:19:22.099Z,99932.66
2023-01-19T17:21:51.253Z,99932.66
2023-01-19T17:24:19.995Z,99942.97
2023-01-19T17:26:48.657Z,99936.25
2023-01-19T17:29:18.231Z,99939.13
2023-01-19T17:31:46.903Z,99947.97
2023-01-19T17:34:16.443Z,99959.59
2023-01-19T17:36:45.094Z,99963.25
2023-01-19T17:39:16.778Z,99959.69
2023-01-19T17:41:45.151Z,99962.44
2023-01-19T17:44:13.324Z,99974.78
2023-01-19T17:46:41.743Z,99972.38
2023-01-19T17:49:09.929Z,99979.28
2023-01-19T17:51:39.648Z,99976.66
2023-01-19T17:54:08.007Z,99974.16
2023-01-19T17:56:38.607Z,99971.53
2023-01-19T17:59:08.092Z,99976.78
2023-01-19T18:01:40.329Z,99978.81
2023-01-19T18:04:10.020Z,99985.88
2023-01-19T18:06:40.173Z,99983.94
2023-01-19T18:09:08.496Z,99982.63
2023-01-19T18:11:37.224Z,99988.59
2023-01-19T18:14:06.587Z,99992.00
2023-01-19T18:16:35.052Z,99984.41
2023-01-19T18:19:03.237Z,99988.84
2023-01-19T18:21:31.322Z,99995.91
2023-01-19T18:24:03.860Z,99995.09
2023-01-19T18:26:33.986Z,99998.44
2023-01-19T18:29:02.543Z,100005.38
2023-01-19T18:31:31.038Z,100004.53
2023-01-19T18:33:59.396Z,100002.97
2023-01-19T18:36:28.077Z,100009.19
2023-01-19T18:38:56.397Z,100015.53
2023-01-19T18:41:25.939Z,100015.63
2023-01-19T18:43:59.576Z,100012.28
2023-01-19T18:46:28.282Z,100017.56
2023-01-19T18:48:56.447Z,100021.13
2023-01-19T18:51:24.661Z,100020.28
2023-01-19T18:53:52.857Z,100034.53
2023-01-19T18:56:21.044Z,100030.19
2023-01-19T18:58:52.226Z,100030.31
2023-01-19T19:01:25.634Z,100029.47
2023-01-19T19:03:55.674Z,100036.53
2023-01-19T19:06:27.024Z,100028.75
2023-01-19T19:08:57.587Z,100035.69
2023-01-19T19:11:26.414Z,100033.16
2023-01-19T19:13:58.408Z,100030.88
2023-01-19T19:16:27.115Z,100038.66
2023-01-19T19:18:55.482Z,100035.91
2023-01-19T19:21:25.664Z,100044.53
2023-01-19T19:23:55.333Z,100050.03
2023-01-19T19:26:25.602Z,100047.53
2023-01-19T19:28:55.100Z,100052.66
2023-01-19T19:31:26.148Z,100056.13
2023-01-19T19:33:56.199Z,100055.50
2023-01-19T19:36:27.432Z,100058.13
2023-01-19T19:38:55.906Z,100060.78
2023-01-19T19:41:27.503Z,100055.50
2023-01-19T19:43:57.396Z,100059.09
2023-01-19T19:46:27.117Z,100066.03
2023-01-19T19:48:55.848Z,100071.53
2023-01-19T19:51:27.077Z,100063.72
2023-01-19T19:53:56.800Z,100072.59
2023-01-19T19:56:27.990Z,100073.63
2023-01-19T19:59:00.006Z,100073.63
2023-01-19T20:01:33.463Z,100072.81
2023-01-19T20:04:08.548Z,100082.72
2023-01-19T20:06:39.881Z,100089.88
2023-01-19T20:09:12.577Z,100096.09
2023-01-19T20:11:42.183Z,100099.56
2023-01-19T20:14:16.024Z,100098.22
2023-01-19T20:16:44.557Z,100106.09
2023-01-19T20:19:12.820Z,100105.38
2023-01-19T20:21:42.968Z,100116.63
2023-01-19T20:24:15.591Z,100113.28
2023-01-19T20:26:47.567Z,100120.09
2023-01-19T20:29:17.433Z,100118.19
2023-01-19T20:31:50.273Z,100126.31
2023-01-19T20:34:23.334Z,100125.47
2023-01-19T20:36:53.706Z,100132.41
2023-01-19T20:39:23.773Z,100132.19
2023-01-19T20:41:52.542Z,100124.63
2023-01-19T20:44:25.806Z,100133.34
2023-01-19T20:46:55.398Z,100137.91
2023-01-19T20:49:24.156Z,100135.34
2023-01-19T20:51:53.391Z,100138.13
2023-01-19T20:54:26.202Z,100145.03
2023-01-19T20:56:55.340Z,100145.88
2023-01-19T20:59:25.098Z,100147.66
2023-01-19T21:01:53.369Z,100144.94
2023-01-19T21:04:22.322Z,100148.50
2023-01-19T21:06:50.542Z,100148.41
2023-01-19T21:09:18.964Z,100150.13
2023-01-19T21:11:47.094Z,100155.38
2023-01-19T21:14:15.211Z,100159.78
2023-01-19T21:16:44.744Z,100160.63
2023-01-19T21:19:13.198Z,100170.31
2023-01-19T21:21:41.448Z,100171.34
2023-01-19T21:24:11.790Z,100176.72
2023-01-19T21:26:41.629Z,100185.47
2023-01-19T21:29:14.001Z,100183.78
2023-01-19T21:31:42.674Z,100188.19
2023-01-19T21:34:12.307Z,100190.72
2023-01-19T21:36:40.439Z,100191.75
2023-01-19T21:39:09.085Z,100193.47
2023-01-19T21:41:40.858Z,100200.50
2023-01-19T21:44:09.006Z,100201.69
2023-01-19T21:46:37.164Z,100203.47
2023-01-19T21:49:07.266Z,100210.41
2023-01-19T21:51:37.996Z,100207.97
2023-01-19T21:54:07.784Z,100212.00
2023-01-19T21:56:37.863Z,100211.03
2023-01-19T21:59:07.434Z,100209.03
2023-01-19T22:01:36.141Z,100220.41
2023-01-19T22:04:04.442Z,100215.34
2023-01-19T22:06:32.601Z,100221.88
2023-01-19T22:09:02.015Z,100219.34
2023-01-19T22:11:30.455Z,100229.88
2023-01-19T22:13:59.580Z,100229.34
2023-01-19T22:16:29.199Z,100225.03
2023-01-19T22:19:01.006Z,100230.28
2023-01-19T22:21:31.969Z,100233.66
2023-01-19T22:24:03.370Z,100233.66
2023-01-19T22:26:34.000Z,100230.94
2023-01-19T22:29:04.171Z,100232.72
2023-01-19T22:31:33.069Z,100239.66
2023-01-19T22:34:01.228Z,100235.34
2023-01-19T22:36:33.759Z,100240.59
2023-01-19T22:39:06.698Z,100251.22
2023-01-19T22:41:37.833Z,100249.66
2023-01-19T22:44:08.843Z,100245.31
2023-01-19T22:46:38.582Z,100252.19
2023-01-19T22:49:09.112Z,100243.53
2023-01-19T22:51:38.080Z,100253.22
2023-01-19T22:54:07.910Z,100252.28
2023-01-19T22:56:38.269Z,100261.88
2023-01-19T22:59:07.966Z,100260.59
2023-01-19T23:01:38.645Z,100261.53
2023-01-19T23:04:08.536Z,100261.72
2023-01-19T23:06:38.135Z,100262.88
2023-01-19T23:09:13.519Z,100262.16
2023-01-19T23:11:44.686Z,100265.84
2023-01-19T23:14:18.002Z,100270.03
2023-01-19T23:16:47.054Z,100269.84
2023-01-19T23:19:17.291Z,100280.34
2023-01-19T23:21:46.555Z,100275.81
2023-01-19T23:24:15.938Z,100288.03
2023-01-19T23:26:44.004Z,100278.44
2023-01-19T23:29:14.878Z,100282.91
2023-01-19T23:31:46.325Z,100280.16
2023-01-19T23:34:17.312Z,100275.72
2023-01-19T23:36:46.401Z,100290.56
2023-01-19T23:39:18.677Z,100288.97
2023-01-19T23:41:47.544Z,100286.47
2023-01-19T23:44:18.007Z,100286.47
2023-01-19T23:46:47.061Z,100291.59
2023-01-19T23:49:15.426Z,100286.25
2023-01-19T23:51:43.739Z,100295.72
2023-01-19T23:54:12.802Z,100296.47
2023-01-19T23:56:43.081Z,100298.34
2023-01-19T23:59:14.227Z,100304.44
